Time;durP1;ratioP1;P1;durP2;ratioP2;P2;SDS_P1;SDS_P2;PMS_P1;PMS_P2;Temp;Humidity;BMP_temperature;BMP_pressure;BME280_temperature;BME280_humidity;BME280_pressure;Samples;Min_cycle;Max_cycle;Signal;HPM_P1;HPM_P2
2022/11/09 00:01:16;;;;;;;13.63;7.60;;;;;;;;;;5049695;28;20032;-68
2022/11/09 00:03:42;;;;;;;10.85;7.20;;;;;;;;;;5049896;28;20017;-69
2022/11/09 00:06:08;;;;;;;12.07;7.07;;;;;;;;;;5041447;28;20025;-69
2022/11/09 00:08:36;;;;;;;13.20;7.25;;;;;;;;;;5030685;28;20044;-73
2022/11/09 00:11:07;;;;;;;11.85;7.68;;;;;;;;;;5030702;28;20451;-70
2022/11/09 00:13:37;;;;;;;11.98;7.53;;;;;;;;;;5031307;28;20473;-68
2022/11/09 00:16:03;;;;;;;12.88;7.90;;;;;;;;;;5030464;28;20043;-70
2022/11/09 00:18:29;;;;;;;12.82;7.18;;;;;;;;;;5030956;28;20095;-70
2022/11/09 00:20:55;;;;;;;13.05;7.22;;;;;;;;;;5041024;28;20742;-69
2022/11/09 00:23:21;;;;;;;14.40;6.82;;;;;;;;;;5049851;28;20124;-68
2022/11/09 00:25:47;;;;;;;11.00;6.97;;;;;;;;;;5053585;28;20033;-69
2022/11/09 00:28:14;;;;;;;11.57;6.97;;;;;;;;;;5042417;28;20034;-69
2022/11/09 00:30:40;;;;;;;14.68;7.45;;;;;;;;;;5052412;28;20036;-70
2022/11/09 00:33:07;;;;;;;11.07;6.80;;;;;;;;;;5041831;28;20029;-70
2022/11/09 00:35:33;;;;;;;12.40;7.65;;;;;;;;;;5047504;28;20104;-69
2022/11/09 00:37:59;;;;;;;11.13;6.00;;;;;;;;;;5034264;28;20922;-69
2022/11/09 00:40:25;;;;;;;13.63;7.15;;;;;;;;;;5053939;28;20032;-68
2022/11/09 00:42:51;;;;;;;11.15;7.72;;;;;;;;;;5053632;28;20108;-69
2022/11/09 00:45:17;;;;;;;12.85;6.88;;;;;;;;;;5053854;28;20103;-68
2022/11/09 00:47:44;;;;;;;9.68;5.57;;;;;;;;;;5053704;28;20036;-69
2022/11/09 00:50:10;;;;;;;10.93;6.57;;;;;;;;;;5053141;28;20466;-69
2022/11/09 00:52:36;;;;;;;10.65;6.82;;;;;;;;;;5059437;28;20032;-69
2022/11/09 00:55:02;;;;;;;10.45;6.20;;;;;;;;;;5048546;28;20542;-69
2022/11/09 00:57:28;;;;;;;14.05;6.90;;;;;;;;;;5047798;28;20143;-69
2022/11/09 00:59:54;;;;;;;11.93;6.88;;;;;;;;;;5051476;28;20031;-69
2022/11/09 01:02:20;;;;;;;10.95;6.85;;;;;;;;;;5053614;28;20104;-69
2022/11/09 01:04:46;;;;;;;11.68;6.68;;;;;;;;;;5051811;28;20017;-70
2022/11/09 01:07:12;;;;;;;9.45;6.35;;;;;;;;;;5054009;28;20429;-71
2022/11/09 01:09:38;;;;;;;13.18;7.15;;;;;;;;;;5053099;28;20136;-73
2022/11/09 01:12:04;;;;;;;14.95;7.40;;;;;;;;;;5053156;28;20033;-69
2022/11/09 01:14:30;;;;;;;9.77;6.80;;;;;;;;;;5052877;28;20439;-70
2022/11/09 01:16:56;;;;;;;12.23;6.05;;;;;;;;;;5052954;28;20025;-70
2022/11/09 01:19:22;;;;;;;10.13;6.88;;;;;;;;;;5051176;28;20791;-69
2022/11/09 01:21:48;;;;;;;9.95;6.22;;;;;;;;;;5052821;28;20067;-70
2022/11/09 01:24:14;;;;;;;10.80;6.10;;;;;;;;;;5053470;28;20020;-68
2022/11/09 01:26:40;;;;;;;12.38;7.20;;;;;;;;;;5052607;28;20025;-71
2022/11/09 01:29:06;;;;;;;11.07;7.22;;;;;;;;;;5042603;28;20378;-70
2022/11/09 01:31:32;;;;;;;13.93;6.38;;;;;;;;;;5052793;28;20075;-70
2022/11/09 01:33:58;;;;;;;11.80;6.60;;;;;;;;;;5052687;28;20053;-68
2022/11/09 01:36:24;;;;;;;14.20;6.95;;;;;;;;;;5052275;28;20108;-69
2022/11/09 01:38:50;;;;;;;11.40;6.30;;;;;;;;;;5052661;28;20066;-69
2022/11/09 01:41:19;;;;;;;12.00;5.82;;;;;;;;;;5052855;28;20036;-70
2022/11/09 01:43:45;;;;;;;11.18;6.38;;;;;;;;;;5052209;28;20431;-70
2022/11/09 01:46:20;;;;;;;12.98;6.47;;;;;;;;;;5052443;28;20103;-69
2022/11/09 01:48:59;;;;;;;12.80;6.57;;;;;;;;;;5047878;28;20037;-70
2022/11/09 01:51:33;;;;;;;10.70;6.50;;;;;;;;;;5049000;28;20421;-69
2022/11/09 01:54:02;;;;;;;13.13;6.38;;;;;;;;;;5051877;28;20013;-71
2022/11/09 01:56:29;;;;;;;12.45;5.75;;;;;;;;;;5037710;28;20108;-70
2022/11/09 01:58:58;;;;;;;11.35;6.30;;;;;;;;;;5032766;28;20056;-69
2022/11/09 02:01:25;;;;;;;9.30;5.78;;;;;;;;;;5032880;28;20105;-69
2022/11/09 02:03:56;;;;;;;9.73;5.82;;;;;;;;;;5032332;28;20175;-69
2022/11/09 02:06:24;;;;;;;10.40;6.18;;;;;;;;;;5039446;28;20497;-69
2022/11/09 02:08:52;;;;;;;11.25;6.57;;;;;;;;;;5051599;28;20036;-69
2022/11/09 02:11:19;;;;;;;12.50;6.78;;;;;;;;;;5048184;28;20035;-68
2022/11/09 02:13:51;;;;;;;10.40;6.05;;;;;;;;;;5052468;28;20162;-69
2022/11/09 02:16:18;;;;;;;10.95;6.18;;;;;;;;;;5052720;28;20032;-68
2022/11/09 02:18:54;;;;;;;8.15;5.78;;;;;;;;;;5038648;28;20056;-71
2022/11/09 02:21:20;;;;;;;9.57;5.80;;;;;;;;;;5045463;28;20025;-69
2022/11/09 02:23:46;;;;;;;10.60;5.97;;;;;;;;;;5052186;28;20029;-70
2022/11/09 02:26:33;;;;;;;9.35;6.15;;;;;;;;;;5050188;28;20071;-71
2022/11/09 02:29:01;;;;;;;8.73;4.95;;;;;;;;;;5038020;28;20044;-70
2022/11/09 02:31:30;;;;;;;7.43;2.80;;;;;;;;;;5037859;28;20026;-70
2022/11/09 02:34:02;;;;;;;3.38;1.95;;;;;;;;;;5031713;28;20364;-71
2022/11/09 02:36:28;;;;;;;2.80;1.75;;;;;;;;;;5045141;28;20075;-68
2022/11/09 02:38:55;;;;;;;3.85;1.70;;;;;;;;;;5038660;28;20029;-70
2022/11/09 02:41:22;;;;;;;5.15;2.70;;;;;;;;;;5050360;28;20355;-69
2022/11/09 02:43:49;;;;;;;5.25;2.92;;;;;;;;;;5033626;28;20021;-69
2022/11/09 02:46:32;;;;;;;6.88;4.10;;;;;;;;;;5050349;28;20025;-70
2022/11/09 02:48:59;;;;;;;9.13;5.57;;;;;;;;;;5049275;28;20083;-70
2022/11/09 02:51:25;;;;;;;10.90;5.90;;;;;;;;;;5054426;28;20028;-68
2022/11/09 02:53:50;;;;;;;11.02;6.22;;;;;;;;;;5045593;28;20029;-69
2022/11/09 02:56:16;;;;;;;8.50;5.72;;;;;;;;;;5051204;28;20518;-68
2022/11/09 02:58:42;;;;;;;7.07;5.05;;;;;;;;;;5045395;28;20087;-71
2022/11/09 03:01:08;;;;;;;9.77;6.10;;;;;;;;;;5050092;28;20033;-69
2022/11/09 03:03:34;;;;;;;11.57;6.28;;;;;;;;;;5061003;28;20024;-68
2022/11/09 03:06:01;;;;;;;9.35;5.43;;;;;;;;;;5050069;28;20041;-68
2022/11/09 03:08:27;;;;;;;7.70;5.07;;;;;;;;;;5051241;28;20351;-69
2022/11/09 03:10:53;;;;;;;10.50;5.32;;;;;;;;;;5049931;28;20029;-70
2022/11/09 03:13:19;;;;;;;7.72;5.43;;;;;;;;;;5051842;28;20480;-70
2022/11/09 03:15:45;;;;;;;9.05;6.00;;;;;;;;;;5050069;28;20048;-73
2022/11/09 03:18:11;;;;;;;7.88;5.47;;;;;;;;;;5050974;28;20040;-70
2022/11/09 03:20:37;;;;;;;7.50;4.20;;;;;;;;;;5050653;28;20060;-71
2022/11/09 03:23:03;;;;;;;6.80;4.25;;;;;;;;;;5050710;28;20651;-71
2022/11/09 03:25:29;;;;;;;6.97;2.95;;;;;;;;;;5051023;28;20021;-70
2022/11/09 03:28:02;;;;;;;5.90;2.90;;;;;;;;;;5047790;28;20033;-71
2022/11/09 03:30:28;;;;;;;5.95;3.20;;;;;;;;;;5050856;28;20065;-70
2022/11/09 03:32:58;;;;;;;5.75;2.90;;;;;;;;;;5050896;28;20049;-69
2022/11/09 03:35:24;;;;;;;5.53;2.83;;;;;;;;;;5050043;28;20017;-70
2022/11/09 03:37:50;;;;;;;8.25;2.78;;;;;;;;;;5049274;28;20039;-70
2022/11/09 03:40:16;;;;;;;3.70;2.72;;;;;;;;;;5044144;28;20108;-70
2022/11/09 03:42:45;;;;;;;4.45;3.03;;;;;;;;;;5050849;28;20021;-73
2022/11/09 03:45:12;;;;;;;5.65;3.28;;;;;;;;;;5041463;28;20032;-70
2022/11/09 03:47:41;;;;;;;4.43;2.97;;;;;;;;;;5045410;28;20534;-69
2022/11/09 03:50:08;;;;;;;4.43;3.22;;;;;;;;;;5043607;28;20032;-69
2022/11/09 03:52:34;;;;;;;5.68;3.53;;;;;;;;;;5055510;28;20017;-69
2022/11/09 03:55:00;;;;;;;5.35;2.85;;;;;;;;;;5050057;28;20036;-69
2022/11/09 03:57:26;;;;;;;4.25;3.25;;;;;;;;;;5051416;28;20029;-70
2022/11/09 03:59:52;;;;;;;4.43;3.38;;;;;;;;;;5044811;28;20048;-69
2022/11/09 04:02:18;;;;;;;5.03;3.08;;;;;;;;;;5048349;28;20106;-70
2022/11/09 04:04:44;;;;;;;5.63;3.20;;;;;;;;;;5050263;28;20027;-72
2022/11/09 04:07:10;;;;;;;5.50;3.65;;;;;;;;;;5050752;28;20055;-69
2022/11/09 04:09:36;;;;;;;5.13;3.83;;;;;;;;;;5050704;28;20036;-69
2022/11/09 04:12:03;;;;;;;5.57;3.78;;;;;;;;;;5049904;28;20048;-69
2022/11/09 04:14:30;;;;;;;6.45;3.67;;;;;;;;;;5049308;28;20033;-73
2022/11/09 04:16:56;;;;;;;6.13;4.03;;;;;;;;;;5033617;28;20017;-69
2022/11/09 04:19:22;;;;;;;6.53;4.60;;;;;;;;;;5029912;28;20045;-71
2022/11/09 04:21:48;;;;;;;5.65;4.60;;;;;;;;;;5046667;28;20058;-74
2022/11/09 04:24:14;;;;;;;8.38;4.63;;;;;;;;;;5049830;28;20160;-69
2022/11/09 04:26:40;;;;;;;9.07;4.90;;;;;;;;;;5050163;28;20040;-69
2022/11/09 04:29:06;;;;;;;7.57;5.20;;;;;;;;;;5037565;28;20569;-70
2022/11/09 04:31:32;;;;;;;7.38;4.40;;;;;;;;;;5047883;28;20462;-69
2022/11/09 04:33:58;;;;;;;9.35;5.22;;;;;;;;;;5049610;28;20037;-70
2022/11/09 04:36:24;;;;;;;7.68;4.95;;;;;;;;;;5049468;28;20017;-72
2022/11/09 04:38:50;;;;;;;7.10;5.15;;;;;;;;;;5049543;28;20453;-69
2022/11/09 04:41:16;;;;;;;8.38;5.60;;;;;;;;;;5049594;28;20033;-70
2022/11/09 04:43:42;;;;;;;7.60;5.43;;;;;;;;;;5050961;28;20032;-68
2022/11/09 04:46:08;;;;;;;10.45;5.97;;;;;;;;;;5048831;28;20021;-70
2022/11/09 04:48:34;;;;;;;9.20;5.47;;;;;;;;;;5040521;28;20402;-69
2022/11/09 04:51:04;;;;;;;11.43;5.97;;;;;;;;;;5048637;28;20047;-69
2022/11/09 04:53:31;;;;;;;8.85;5.75;;;;;;;;;;5050609;28;20032;-69
2022/11/09 04:55:57;;;;;;;8.00;5.47;;;;;;;;;;5047227;28;20072;-69
2022/11/09 04:58:23;;;;;;;10.90;6.30;;;;;;;;;;5050279;28;20031;-69
2022/11/09 05:00:49;;;;;;;7.75;5.85;;;;;;;;;;5047622;28;20017;-69
2022/11/09 05:03:15;;;;;;;10.82;7.05;;;;;;;;;;5049596;28;20113;-69
2022/11/09 05:05:41;;;;;;;10.75;7.47;;;;;;;;;;5042345;28;20025;-69
2022/11/09 05:08:08;;;;;;;9.60;5.95;;;;;;;;;;5041310;28;20025;-69
2022/11/09 05:10:34;;;;;;;8.93;6.10;;;;;;;;;;5046203;28;20028;-71
2022/11/09 05:13:01;;;;;;;9.93;5.97;;;;;;;;;;5044391;28;20021;-71
2022/11/09 05:15:27;;;;;;;8.40;5.60;;;;;;;;;;5047237;28;20082;-71
2022/11/09 05:17:53;;;;;;;12.07;6.70;;;;;;;;;;5042750;28;20175;-70
2022/11/09 05:20:19;;;;;;;11.13;6.35;;;;;;;;;;5046926;28;20036;-70
2022/11/09 05:25:30;;;;;;;11.82;6.88;;;;;;;;;;5043040;28;20036;-72
2022/11/09 05:27:56;;;;;;;9.68;6.65;;;;;;;;;;5041926;28;20037;-71
2022/11/09 05:30:22;;;;;;;14.10;7.43;;;;;;;;;;5045323;28;20044;-70
2022/11/09 05:32:48;;;;;;;12.13;6.85;;;;;;;;;;5043892;28;20462;-73
2022/11/09 05:35:14;;;;;;;11.55;6.60;;;;;;;;;;5043919;28;20025;-71
2022/11/09 05:37:40;;;;;;;13.38;6.97;;;;;;;;;;5044962;28;20515;-69
2022/11/09 05:40:08;;;;;;;8.38;6.65;;;;;;;;;;5040441;28;20096;-70
2022/11/09 05:42:34;;;;;;;11.65;7.70;;;;;;;;;;5042404;28;20065;-71
2022/11/09 05:45:00;;;;;;;12.88;8.57;;;;;;;;;;5047257;28;20027;-70
2022/11/09 05:47:26;;;;;;;10.68;7.80;;;;;;;;;;5043666;28;20021;-71
2022/11/09 05:49:52;;;;;;;17.95;9.10;;;;;;;;;;5041608;28;20060;-72
2022/11/09 05:52:18;;;;;;;13.75;9.48;;;;;;;;;;5046210;28;20470;-70
2022/11/09 05:54:44;;;;;;;14.93;9.50;;;;;;;;;;5043505;28;20033;-70
2022/11/09 05:57:10;;;;;;;12.00;9.80;;;;;;;;;;5044082;28;20028;-70
2022/11/09 05:59:35;;;;;;;14.85;9.40;;;;;;;;;;5041961;28;20074;-70
2022/11/09 06:02:02;;;;;;;12.48;9.40;;;;;;;;;;5049665;28;20035;-71
2022/11/09 06:04:28;;;;;;;14.80;9.45;;;;;;;;;;5051240;28;20097;-71
2022/11/09 06:06:54;;;;;;;13.77;9.77;;;;;;;;;;5048623;28;20036;-70
2022/11/09 06:09:19;;;;;;;14.20;9.52;;;;;;;;;;5047146;28;20033;-71
2022/11/09 06:11:45;;;;;;;13.10;8.98;;;;;;;;;;5031850;28;20382;-73
2022/11/09 06:14:11;;;;;;;14.43;9.80;;;;;;;;;;5032694;28;20025;-70
2022/11/09 06:16:37;;;;;;;13.27;9.07;;;;;;;;;;5035367;28;20032;-72
2022/11/09 06:19:04;;;;;;;16.17;10.40;;;;;;;;;;5047197;28;20041;-70
2022/11/09 06:21:30;;;;;;;20.00;10.45;;;;;;;;;;5045649;28;20386;-72
2022/11/09 06:23:56;;;;;;;14.65;9.70;;;;;;;;;;5050031;28;20025;-70
2022/11/09 06:26:21;;;;;;;15.63;10.65;;;;;;;;;;5052369;28;20067;-70
2022/11/09 06:28:47;;;;;;;15.88;10.55;;;;;;;;;;5039694;28;20047;-74
2022/11/09 06:31:15;;;;;;;15.75;10.23;;;;;;;;;;5051625;28;20036;-72
2022/11/09 06:33:42;;;;;;;17.98;10.93;;;;;;;;;;5056363;28;20543;-71
2022/11/09 06:36:09;;;;;;;14.77;11.07;;;;;;;;;;5054738;28;20120;-71
2022/11/09 06:38:35;;;;;;;17.10;10.27;;;;;;;;;;5054402;28;20040;-71
2022/11/09 06:41:01;;;;;;;16.02;11.63;;;;;;;;;;5055801;28;20025;-70
2022/11/09 06:43:27;;;;;;;15.07;11.68;;;;;;;;;;5054528;28;20021;-70
2022/11/09 06:45:55;;;;;;;16.38;11.13;;;;;;;;;;5045057;28;20069;-71
2022/11/09 06:48:21;;;;;;;15.98;10.82;;;;;;;;;;5052538;28;20029;-70
2022/11/09 06:50:47;;;;;;;16.50;10.50;;;;;;;;;;5052754;28;20033;-74
2022/11/09 06:53:14;;;;;;;13.40;10.32;;;;;;;;;;5052180;28;20020;-71
2022/11/09 06:55:41;;;;;;;14.35;10.00;;;;;;;;;;5049816;28;20498;-71
2022/11/09 06:58:07;;;;;;;18.52;10.80;;;;;;;;;;5051869;28;20070;-73
2022/11/09 07:00:34;;;;;;;13.88;10.68;;;;;;;;;;5051197;28;20033;-73
2022/11/09 07:03:00;;;;;;;14.05;10.32;;;;;;;;;;5051211;28;20028;-69
2022/11/09 07:05:26;;;;;;;18.67;10.10;;;;;;;;;;5048819;28;20319;-69
2022/11/09 07:07:52;;;;;;;15.43;10.98;;;;;;;;;;5050138;28;20094;-70
2022/11/09 07:10:18;;;;;;;15.77;9.90;;;;;;;;;;5050145;28;20135;-70
2022/11/09 07:12:44;;;;;;;14.77;11.07;;;;;;;;;;5050282;28;20024;-69
2022/11/09 07:15:11;;;;;;;16.35;9.75;;;;;;;;;;5047235;28;20033;-70
2022/11/09 07:17:38;;;;;;;18.15;11.32;;;;;;;;;;5050514;28;20029;-69
2022/11/09 07:20:05;;;;;;;17.83;10.80;;;;;;;;;;5050019;28;20053;-70
2022/11/09 07:22:33;;;;;;;12.75;9.88;;;;;;;;;;5040250;28;20033;-68
2022/11/09 07:25:00;;;;;;;18.42;10.35;;;;;;;;;;5036840;28;20025;-69
2022/11/09 07:27:26;;;;;;;18.00;10.05;;;;;;;;;;5050630;28;20071;-68
2022/11/09 07:29:52;;;;;;;18.27;9.65;;;;;;;;;;5046688;28;20041;-73
2022/11/09 07:32:18;;;;;;;16.75;10.35;;;;;;;;;;5043233;28;20035;-70
2022/11/09 07:34:45;;;;;;;14.63;9.77;;;;;;;;;;5048450;28;20021;-68
2022/11/09 07:37:11;;;;;;;13.70;9.02;;;;;;;;;;5050365;28;20091;-69
2022/11/09 07:39:37;;;;;;;16.33;10.18;;;;;;;;;;5054375;28;20033;-69
2022/11/09 07:42:03;;;;;;;10.80;8.52;;;;;;;;;;5049688;28;20033;-70
2022/11/09 07:44:29;;;;;;;14.15;9.60;;;;;;;;;;5049759;28;20351;-69
2022/11/09 07:46:55;;;;;;;12.38;8.52;;;;;;;;;;5050006;28;20168;-69
2022/11/09 07:49:21;;;;;;;13.82;8.45;;;;;;;;;;5050364;28;20035;-70
2022/11/09 07:51:47;;;;;;;11.38;7.15;;;;;;;;;;5060370;28;20047;-69
2022/11/09 07:54:13;;;;;;;13.15;6.93;;;;;;;;;;5050010;28;20478;-69
2022/11/09 07:56:39;;;;;;;7.53;6.15;;;;;;;;;;5050220;28;20021;-70
2022/11/09 07:59:05;;;;;;;12.10;6.90;;;;;;;;;;5050510;28;20453;-71
2022/11/09 08:01:31;;;;;;;11.55;6.25;;;;;;;;;;5050735;28;20037;-70
2022/11/09 08:03:57;;;;;;;9.20;5.32;;;;;;;;;;5044781;28;20116;-69
2022/11/09 08:06:26;;;;;;;10.57;5.57;;;;;;;;;;5049554;28;20024;-70
2022/11/09 08:08:53;;;;;;;6.88;4.50;;;;;;;;;;5050800;28;20025;-69
2022/11/09 08:11:19;;;;;;;5.40;4.47;;;;;;;;;;5050458;28;20040;-69
2022/11/09 08:13:45;;;;;;;6.55;4.97;;;;;;;;;;5048109;28;20025;-68
2022/11/09 08:16:11;;;;;;;4.95;4.18;;;;;;;;;;5049835;28;20520;-69
2022/11/09 08:18:38;;;;;;;6.97;4.82;;;;;;;;;;5050656;28;20102;-68
2022/11/09 08:21:04;;;;;;;9.73;4.60;;;;;;;;;;5030378;28;20412;-69
2022/11/09 08:23:30;;;;;;;7.57;4.30;;;;;;;;;;5024261;28;20045;-69
2022/11/09 08:25:56;;;;;;;5.50;4.35;;;;;;;;;;5029539;28;20057;-70
2022/11/09 08:28:22;;;;;;;5.53;4.15;;;;;;;;;;5018712;28;20030;-69
2022/11/09 08:30:56;;;;;;;6.03;3.70;;;;;;;;;;5030121;28;20025;-72
2022/11/09 08:33:22;;;;;;;6.40;3.28;;;;;;;;;;5032200;28;20434;-70
2022/11/09 08:35:48;;;;;;;5.30;3.53;;;;;;;;;;5031637;28;20030;-74
2022/11/09 08:38:14;;;;;;;8.05;3.63;;;;;;;;;;5024188;28;20037;-70
2022/11/09 08:40:40;;;;;;;4.13;3.35;;;;;;;;;;5025894;28;20037;-70
2022/11/09 08:43:07;;;;;;;6.05;3.63;;;;;;;;;;5027233;28;20017;-69
2022/11/09 08:45:34;;;;;;;6.55;3.05;;;;;;;;;;5037363;28;20021;-70
2022/11/09 08:48:01;;;;;;;4.82;3.20;;;;;;;;;;5033634;28;20033;-70
2022/11/09 08:50:28;;;;;;;6.05;3.22;;;;;;;;;;5023448;28;20036;-69
2022/11/09 08:52:54;;;;;;;4.80;2.80;;;;;;;;;;5029973;28;20028;-71
2022/11/09 08:55:20;;;;;;;3.60;2.70;;;;;;;;;;5029500;28;20465;-70
2022/11/09 08:57:46;;;;;;;6.75;2.85;;;;;;;;;;5020991;28;20028;-70
2022/11/09 09:00:12;;;;;;;5.70;2.60;;;;;;;;;;5033245;28;20097;-71
2022/11/09 09:02:38;;;;;;;4.95;2.40;;;;;;;;;;5033615;28;20026;-69
2022/11/09 09:05:04;;;;;;;3.65;2.25;;;;;;;;;;5027300;28;20040;-69
2022/11/09 09:07:30;;;;;;;2.58;1.80;;;;;;;;;;5030647;28;20029;-70
2022/11/09 09:09:56;;;;;;;4.32;2.22;;;11.70;99.90;;;;;;5032304;28;20037;-70
2022/11/09 09:12:21;;;;;;;3.38;1.92;;;11.60;99.90;;;;;;5021615;28;20034;-70
2022/11/09 09:14:47;;;;;;;4.07;2.25;;;11.70;99.90;;;;;;5029574;28;20025;-69
2022/11/09 09:17:13;;;;;;;3.72;1.98;;;11.60;99.90;;;;;;5026760;28;20490;-70
2022/11/09 09:19:39;;;;;;;3.35;1.98;;;11.60;99.90;;;;;;5041174;28;20493;-71
2022/11/09 09:22:04;;;;;;;5.63;2.30;;;11.60;99.90;;;;;;5071308;28;20754;-69
2022/11/09 09:24:30;;;;;;;3.20;2.08;;;11.50;99.90;;;;;;5068705;28;20024;-69
2022/11/09 09:26:56;;;;;;;3.38;2.15;;;11.60;99.90;;;;;;5068245;28;20478;-70
2022/11/09 09:29:21;;;;;;;3.67;2.30;;;11.60;99.90;;;;;;5054475;28;20493;-69
2022/11/09 09:31:47;;;;;;;2.90;2.00;;;11.70;99.90;;;;;;5072788;28;20035;-69
2022/11/09 09:34:12;;;;;;;3.97;1.80;;;11.70;99.90;;;;;;5072230;28;20019;-68
2022/11/09 09:36:38;;;;;;;3.45;1.80;;;11.80;99.90;;;;;;5072396;28;20469;-69
2022/11/09 09:39:04;;;;;;;2.95;1.73;;;11.90;99.90;;;;;;5071978;28;20479;-69
2022/11/09 09:41:41;;;;;;;5.10;2.45;;;11.90;99.90;;;;;;5072171;28;20033;-69
2022/11/09 09:44:18;;;;;;;4.07;1.70;;;12.00;99.90;;;;;;5072308;28;20024;-69
2022/11/09 09:46:52;;;;;;;2.00;1.60;;;12.10;99.90;;;;;;5062547;28;20060;-69
2022/11/09 09:49:28;;;;;;;5.90;1.38;;;12.20;99.90;;;;;;5070991;28;20028;-71
2022/11/09 09:52:08;;;;;;;1.90;1.40;;;12.30;99.90;;;;;;5070134;28;20036;-71
2022/11/09 09:54:40;;;;;;;4.50;1.52;;;12.50;99.90;;;;;;5071379;28;20024;-70
2022/11/09 09:57:14;;;;;;;2.28;1.60;;;12.50;99.90;;;;;;5071217;28;20040;-69
2022/11/09 09:59:42;;;;;;;6.47;2.40;;;12.60;99.90;;;;;;5072276;28;20725;-70
2022/11/09 10:02:21;;;;;;;6.35;3.00;;;12.70;99.90;;;;;;5070709;28;20032;-70
2022/11/09 10:04:47;;;;;;;2.95;1.60;;;12.90;99.90;;;;;;5071892;28;20024;-69
2022/11/09 10:07:25;;;;;;;4.30;2.15;;;13.00;99.90;;;;;;5070955;28;20127;-70
2022/11/09 10:10:15;;;;;;;5.60;3.72;;;13.00;99.90;;;;;;5068728;28;20511;-72
2022/11/09 10:13:00;;;;;;;4.60;3.58;;;13.10;99.90;;;;;;5071009;28;20025;-70
2022/11/09 10:16:04;;;;;;;6.53;3.38;;;13.20;99.90;;;;;;5072209;28;20024;-70
2022/11/09 10:19:06;;;;;;;4.70;3.33;;;13.10;99.90;;;;;;5064591;28;20032;-70
2022/11/09 10:22:18;;;;;;;10.45;4.38;;;13.20;99.90;;;;;;5067799;28;20398;-70
2022/11/09 10:25:02;;;;;;;10.27;4.53;;;13.40;99.90;;;;;;5059616;28;20469;-69
2022/11/09 10:27:36;;;;;;;5.88;4.22;;;13.40;99.90;;;;;;5064116;28;20029;-70
2022/11/09 10:30:11;;;;;;;11.75;5.35;;;13.50;99.90;;;;;;5070512;28;20040;-70
2022/11/09 10:32:37;;;;;;;7.57;4.57;;;13.50;99.90;;;;;;5066876;28;20481;-69
2022/11/09 10:35:18;;;;;;;7.20;4.60;;;13.50;99.90;;;;;;5070677;28;20048;-69
2022/11/09 10:37:47;;;;;;;12.02;7.38;;;13.60;99.90;;;;;;5071058;28;20029;-69
2022/11/09 10:40:34;;;;;;;6.43;4.85;;;13.70;99.90;;;;;;5067633;28;20036;-70
2022/11/09 10:43:05;;;;;;;5.32;4.43;;;13.80;99.90;;;;;;5070750;28;20032;-69
2022/11/09 10:45:42;;;;;;;8.10;4.80;;;13.80;99.90;;;;;;5065477;28;20036;-69
2022/11/09 10:48:11;;;;;;;7.18;3.75;;;13.80;99.90;;;;;;5073438;28;20028;-70
2022/11/09 10:50:55;;;;;;;6.10;3.65;;;13.90;99.90;;;;;;5083261;28;20030;-70
2022/11/09 10:53:23;;;;;;;4.38;3.30;;;14.00;99.90;;;;;;5055892;28;20123;-70
2022/11/09 10:56:09;;;;;;;9.52;3.22;;;14.00;99.90;;;;;;5064946;28;20461;-69
2022/11/09 10:58:45;;;;;;;6.85;3.20;;;13.90;99.90;;;;;;5061184;28;20041;-70
2022/11/09 11:01:13;;;;;;;6.22;3.40;;;14.00;99.90;;;;;;5068778;28;20028;-70
2022/11/09 11:03:40;;;;;;;4.82;3.15;;;14.00;99.90;;;;;;5062344;28;20355;-72
2022/11/09 11:06:17;;;;;;;5.90;2.45;;;14.00;99.90;;;;;;5063623;28;20021;-70
2022/11/09 11:08:45;;;;;;;4.25;3.10;;;14.10;99.90;;;;;;5068472;28;20032;-71
2022/11/09 11:11:23;;;;;;;6.07;2.90;;;14.20;99.90;;;;;;5062056;28;20036;-70
2022/11/09 11:13:52;;;;;;;5.68;3.60;;;14.20;99.90;;;;;;5070289;28;20028;-70
2022/11/09 11:16:33;;;;;;;7.32;3.22;;;14.20;99.90;;;;;;5067464;28;20032;-70
2022/11/09 11:18:59;;;;;;;6.30;3.10;;;14.30;99.90;;;;;;5057674;28;20060;-71
2022/11/09 11:21:26;;;;;;;5.85;3.38;;;14.30;99.90;;;;;;5073112;28;20031;-71
2022/11/09 11:24:13;;;;;;;9.10;4.32;;;14.30;99.90;;;;;;5051866;28;20444;-69
2022/11/09 11:27:10;;;;;;;4.78;3.75;;;14.50;99.90;;;;;;5069482;28;20043;-68
2022/11/09 11:30:14;;;;;;;5.45;3.72;;;14.50;99.90;;;;;;5065179;28;20036;-70
2022/11/09 11:32:41;;;;;;;5.50;3.55;;;14.60;99.90;;;;;;5070439;28;20314;-70
2022/11/09 11:35:25;;;;;;;5.30;3.55;;;14.60;99.90;;;;;;5067399;28;20036;-69
2022/11/09 11:38:11;;;;;;;7.30;3.80;;;14.60;99.90;;;;;;5069816;28;20473;-69
2022/11/09 11:41:00;;;;;;;6.50;3.83;;;14.60;99.90;;;;;;5067617;28;20100;-68
2022/11/09 11:43:38;;;;;;;7.80;4.03;;;14.50;99.90;;;;;;5070720;28;20035;-69
2022/11/09 11:46:29;;;;;;;8.48;3.72;;;14.50;99.90;;;;;;5068472;28;20037;-68
2022/11/09 11:49:13;;;;;;;5.82;2.90;;;14.40;99.90;;;;;;5058050;28;20044;-71
2022/11/09 11:51:48;;;;;;;6.15;3.47;;;14.40;99.90;;;;;;5072639;28;20028;-70
2022/11/09 11:54:33;;;;;;;4.88;3.20;;;14.40;99.90;;;;;;5069993;28;20035;-69
2022/11/09 11:57:26;;;;;;;3.80;2.60;;;14.30;99.90;;;;;;5068714;28;20466;-70
2022/11/09 12:00:00;;;;;;;3.22;2.33;;;14.40;99.90;;;;;;5070215;28;20393;-69
2022/11/09 12:03:14;;;;;;;4.30;2.10;;;14.50;99.90;;;;;;5061373;28;20067;-69
2022/11/09 12:05:50;;;;;;;2.78;1.90;;;14.60;99.90;;;;;;4968495;28;20130;-69
2022/11/09 12:08:48;;;;;;;3.85;1.70;;;14.70;99.90;;;;;;4967736;28;20101;-69
2022/11/09 12:11:31;;;;;;;3.10;1.80;;;14.80;99.90;;;;;;5034405;28;20040;-68
2022/11/09 12:14:14;;;;;;;5.93;1.77;;;14.90;99.90;;;;;;5069656;28;20489;-71
2022/11/09 12:17:06;;;;;;;2.85;1.58;;;14.90;99.90;;;;;;5069710;28;20497;-70
2022/11/09 12:19:40;;;;;;;3.40;1.70;;;15.00;99.90;;;;;;5067881;28;20098;-71
2022/11/09 12:22:20;;;;;;;4.88;1.92;;;15.00;99.90;;;;;;5069745;28;20155;-69
2022/11/09 12:25:16;;;;;;;1.92;1.60;;;15.00;99.90;;;;;;5064708;28;20067;-70
2022/11/09 12:27:55;;;;;;;3.95;1.52;;;15.00;99.90;;;;;;5068781;28;20024;-70
2022/11/09 12:30:26;;;;;;;4.72;1.80;;;15.00;99.90;;;;;;5056237;28;20040;-70
2022/11/09 12:32:51;;;;;;;;;;;15.10;99.90;;;;;;5065696;28;20567;-69
2022/11/09 12:35:29;;;;;;;3.88;1.85;;;15.10;99.90;;;;;;5067362;28;19905;-69
2022/11/09 12:38:09;;;;;;;4.53;1.70;;;15.10;99.90;;;;;;5067122;28;20028;-72
2022/11/09 12:40:47;;;;;;;6.70;1.98;;;15.10;99.90;;;;;;5068456;28;20029;-69
2022/11/09 12:43:27;;;;;;;3.30;1.65;;;15.20;99.90;;;;;;5056714;28;20040;-69
2022/11/09 12:45:53;;;;;;;3.22;1.70;;;15.20;99.90;;;;;;5068432;28;20031;-70
2022/11/09 12:48:28;;;;;;;3.00;1.65;;;15.30;99.90;;;;;;5068401;28;20385;-70
2022/11/09 12:50:54;;;;;;;3.38;1.73;;;15.40;99.90;;;;;;5073799;28;20028;-69
2022/11/09 12:53:24;;;;;;;4.43;1.60;;;15.40;99.90;;;;;;5064481;28;20037;-70
2022/11/09 12:55:52;;;;;;;3.38;1.60;;;15.50;99.90;;;;;;5066443;28;20056;-69
2022/11/09 12:58:21;;;;;;;4.07;2.00;;;15.50;99.90;;;;;;5067856;28;20788;-71
2022/11/09 13:00:49;;;;;;;2.08;1.17;;;15.60;99.90;;;;;;5063883;28;20047;-69
2022/11/09 13:03:21;;;;;;;1.30;1.17;;;15.60;99.90;;;;;;5066712;28;20020;-69
2022/11/09 13:05:48;;;;;;;2.42;1.40;;;15.60;99.90;;;;;;5061410;28;20035;-69
2022/11/09 13:08:22;;;;;;;4.80;1.42;;;15.60;99.90;;;;;;5065258;28;20048;-68
2022/11/09 13:11:07;;;;;;;9.13;1.42;;;15.70;99.90;;;;;;5054032;28;20044;-69
2022/11/09 13:13:33;;;;;;;2.53;1.25;;;15.70;99.90;;;;;;5061327;28;20056;-68
2022/11/09 13:16:04;;;;;;;2.33;1.20;;;15.70;99.90;;;;;;5062121;28;20507;-72
2022/11/09 13:18:30;;;;;;;6.55;1.30;;;15.70;99.90;;;;;;5067290;28;20105;-69
2022/11/09 13:21:16;;;;;;;1.50;1.38;;;15.60;99.90;;;;;;5071220;28;20080;-70
2022/11/09 13:23:42;;;;;;;2.75;1.40;;;15.60;99.90;;;;;;5069423;28;20032;-69
2022/11/09 13:26:32;;;;;;;2.70;1.50;;;15.50;99.90;;;;;;5059563;28;20113;-70
2022/11/09 13:29:09;;;;;;;2.08;1.48;;;15.50;99.90;;;;;;5059836;28;20111;-72
2022/11/09 13:31:56;;;;;;;2.72;1.50;;;15.40;99.90;;;;;;5070696;28;20040;-69
2022/11/09 13:34:58;;;;;;;3.38;1.60;;;15.30;99.90;;;;;;5063181;28;20124;-70
2022/11/09 13:37:46;;;;;;;4.03;1.55;;;15.30;99.90;;;;;;5011991;28;20030;-70
2022/11/09 13:40:30;;;;;;;1.40;1.17;;;15.30;99.90;;;;;;5069360;28;20090;-69
2022/11/09 13:43:04;;;;;;;3.05;1.80;;;15.30;99.90;;;;;;5068685;28;20036;-72
2022/11/09 13:45:46;;;;;;;5.03;1.27;;;15.30;99.90;;;;;;5063490;28;20032;-68
2022/11/09 13:48:32;;;;;;;3.58;1.65;;;15.20;99.90;;;;;;5066946;28;20033;-70
2022/11/09 13:51:03;;;;;;;2.05;1.30;;;15.20;99.90;;;;;;5071656;28;20107;-71
2022/11/09 13:53:53;;;;;;;2.33;1.50;;;15.10;99.90;;;;;;5070309;28;20027;-69
2022/11/09 13:56:31;;;;;;;3.30;1.50;;;15.10;99.90;;;;;;5060153;28;20045;-69
2022/11/09 13:59:08;;;;;;;3.97;1.60;;;15.10;99.90;;;;;;5070912;28;20032;-73
2022/11/09 14:01:44;;;;;;;2.10;1.50;;;15.10;99.90;;;;;;5064040;28;20023;-69
2022/11/09 14:04:19;;;;;;;2.58;1.60;;;15.00;99.90;;;;;;5071054;28;20039;-69
2022/11/09 14:06:45;;;;;;;2.83;1.73;;;14.90;99.90;;;;;;5067736;28;20028;-69
2022/11/09 14:09:16;;;;;;;5.30;2.00;;;14.90;99.90;;;;;;5071625;28;20040;-69
2022/11/09 14:12:10;;;;;;;2.70;2.15;;;14.90;99.90;;;;;;5069963;28;20039;-69
2022/11/09 14:14:38;;;;;;;5.55;3.03;;;14.80;99.90;;;;;;5076270;28;20036;-70